Wanamaker, Indiana
Current Conditions -  °F | °C
As of 12:55 AM on Sunday 26 Oct 2014 (Local Time) from KMQJ Reporting Station
Clear Clear  
Wind Chill: 55°   Ceiling: Unl
Heat Index: 55°   Visibility: 10mi
Dew Point: 23°   Wind: 8mph
Humidity: 28%   Direction: 310°NW
Pressure: 29.97"   Gusts: NA
Location:  39.7221°N, 86.0007°W
Report Text: KMQJ 260455Z AUTO 31007KT 10SM CLR 13/M05 A2997 RMK AO1
Loading
Personal Weather Stations






























Interactive Weather Map
Tropical Storm Tracking
New forecast layout! Learn more

10-Day Weather Forecast

Advertisements
Track Severe Weather on mobile